ローマ・レオナルド・ダ・ビンチ国際空港の過去48時間の天気

ローマ・レオナルド・ダ・ビンチ国際空港 (Roma Fiumicino)

現在時刻: 9/22 23:26 CEST (9/22 21:26 UTC) 以下の時間は現地時間です。

過去48時間のMETAR気象情報
時間 風向 風速(m/s) 視程 気温(℃) 湿度(%) 気圧(hPa) 天気現象
22 22:50 南南東 7 10km以上 23 73 1012
22 22:20 南南東 6 10km以上 23 73 1013
22 21:50 南東 6 10km以上 22 78 1013
22 21:20 南東 7 10km以上 22 73 1013
22 20:50 南東 7 10km以上 22 73 1013
22 20:20 南東 6 10km以上 23 69 1013
22 19:50 南東 5 10km以上 22 73 1013
22 19:20 南東 5 10km以上 21 78 1013
22 18:50 東南東 3 10km以上 21 83 1014
22 18:20 3 10km以上 21 83 1014
22 17:50 東北東 3 7000m 20 94 1014 弱いしゅう雨
22 17:20 東南東 5 10km以上 20 88 1014
22 16:50 6 10km以上 21 83 1015
22 16:20 5 10km以上 20 88 1015
22 15:50 3 10km以上 20 88 1016
22 15:20 東北東 5 10km以上 19 94 1016
22 14:50 北東 3 8000m 19 94 1017
22 14:20 3 8000m 20 88 1018
22 13:50 南東 6 8000m 21 78 1017 弱い雨
22 13:20 南東 4 10km以上 21 83 1017
22 12:50 東南東 7 10km以上 21 83 1017
22 12:20 東南東 6 10km以上 20 83 1017
22 11:50 東南東 6 10km以上 19 88 1017 弱い雨
22 11:20 南東 6 10km以上 19 88 1017 弱い雨
22 10:50 南南東 5 10km以上 20 83 1018 弱い雨
22 10:20 南東 3 10km以上 20 88 1017
22 09:50 東南東 4 10km以上 19 88 1018
22 09:20 東北東 4 10km以上 18 94 1017
22 08:50 2 10km以上 17 100 1018 弱い雨 周辺で雷
22 08:20 4 6000m 17 100 1019
22 07:50 東北東 3 6000m 17 94 1019 雷雨
22 07:20 東南東 5 7000m 18 94 1018 雷雨
22 06:50 5 6000m 18 88 1019 雨 周辺で雷
22 06:20 東南東 5 6000m 18 94 1018
22 05:50 北東 4 7000m 19 83 1019 雨 周辺で雷
22 05:20 9 10km以上 23 53 1019 弱い雨 周辺で雷
22 04:50 東南東 4 10km以上 22 57 1018
22 04:20 南東 4 10km以上 22 60 1018
22 03:50 南東 4 10km以上 22 57 1018
22 03:20 南東 4 10km以上 22 57 1018
22 02:50 4 10km以上 21 64 1019
22 02:20 6 10km以上 21 64 1018
22 01:50 4 10km以上 21 69 1019
22 01:20 3 10km以上 21 69 1019
22 00:50 3 10km以上 21 69 1020
22 00:20 3 10km以上 20 73 1020
21 23:50 2 10km以上 20 78 1020
21 23:20 東南東 2 10km以上 20 78 1020
21 22:50 南東 3 10km以上 21 73 1020
21 22:20 3 10km以上 22 69 1020
21 21:50 東南東 2 10km以上 21 73 1020
21 21:20 3 10km以上 22 69 1020
21 20:50 2 10km以上 22 69 1020
21 20:20 2 10km以上 22 69 1020
21 19:50 2 10km以上 23 69 1020
21 19:20 南南西 4 10km以上 23 69 1020
21 18:50 南南西 4 10km以上 23 69 1020
21 18:20 南南西 4 10km以上 24 65 1020
21 17:50 南南西 4 10km以上 24 65 1020
21 17:20 南南西 2 10km以上 25 57 1020
21 16:50 西南西 3 10km以上 25 61 1020
21 16:20 西南西 4 10km以上 24 61 1021
21 15:50 西南西 4 10km以上 25 61 1021
21 15:20 西南西 4 10km以上 25 61 1021
21 14:50 南西 5 10km以上 25 61 1022
21 14:20 西南西 5 10km以上 25 61 1022
21 13:50 南西 4 10km以上 25 61 1022
21 13:20 南南西 4 10km以上 26 58 1022
21 12:50 南南西 4 10km以上 24 65 1022
21 12:20 南西 4 10km以上 25 61 1022
21 11:50 不定 2 10km以上 25 54 1022
21 11:20 東南東 3 10km以上 24 54 1022
21 10:50 3 10km以上 22 57 1022
21 10:20 北東 3 10km以上 21 53 1022
21 09:50 5 10km以上 20 56 1022
21 09:20 東北東 4 10km以上 19 56 1022
21 08:50 北東 3 10km以上 17 59 1022
21 08:20 北東 3 10km以上 16 63 1022
21 07:50 北東 3 10km以上 15 67 1021
21 07:20 北東 3 10km以上 14 72 1021
21 06:50 北東 2 10km以上 14 72 1021
21 06:20 北東 2 10km以上 14 72 1021
21 05:50 東北東 3 10km以上 15 67 1021
21 05:20 北東 3 10km以上 15 67 1021
21 04:50 北東 3 10km以上 15 67 1021
21 04:20 北東 3 10km以上 15 67 1021
21 03:50 北東 2 10km以上 15 67 1021
21 03:20 北東 3 10km以上 15 67 1021
21 02:50 北東 2 10km以上 16 63 1021
21 02:20 北東 3 10km以上 16 63 1021
21 01:50 北東 2 10km以上 17 59 1021
21 01:20 北東 3 10km以上 17 63 1021
21 00:50 北東 3 10km以上 17 63 1021
21 00:20 北東 3 10km以上 18 60 1021
20 23:50 北北東 3 10km以上 18 60 1021
LIRF 222050Z 15013KT 9999 SCT035 23/18 Q1012 TEMPO 4000 TSRA
LIRF 222020Z 15011KT 9999 SCT035 23/18 Q1013 NOSIG
LIRF 221950Z 14012KT 9999 FEW025 SCT035 22/18 Q1013 NOSIG
LIRF 221920Z 14013KT 120V180 9999 SCT025 BKN030 22/17 Q1013 NOSIG
LIRF 221850Z 14013KT 9999 SCT025 BKN044 22/17 Q1013 NOSIG
LIRF 221820Z 14012KT 9999 SCT035 BKN050 23/17 Q1013 NOSIG
LIRF 221750Z 14009KT 9999 SCT040 BKN057 22/17 Q1013 NOSIG
LIRF 221720Z 13009KT CAVOK 21/17 Q1013 NOSIG
LIRF 221650Z 11006KT 090V160 CAVOK 21/18 Q1014 NOSIG
LIRF 221620Z 10006KT 9999 BKN045 21/18 Q1014 NOSIG
LIRF 221550Z 06005KT 020V100 7000 -SHRA FEW030TCU BKN048 20/19 Q1014 NOSIG
LIRF 221520Z 11010KT CAVOK 20/18 Q1014 NOSIG
LIRF 221450Z 10011KT CAVOK 21/18 Q1015 NOSIG
LIRF 221420Z 10009KT CAVOK 20/18 Q1015 NOSIG
LIRF 221350Z 10005KT 070V130 CAVOK 20/18 Q1016 TEMPO 4000 TSRA
LIRF 221320Z 07010KT 9999 FEW030 19/18 Q1016 RERA TEMPO 4000 TSRA
LIRF 221250Z 05006KT 010V090 8000 RA FEW020 SCT050 19/18 Q1017 TEMPO 4000 TSRA
LIRF 221220Z 01005KT 320V040 8000 RA SCT015 SCT055 20/18 Q1018 TEMPO 4000 TSRA
LIRF 221150Z 14011KT 120V190 8000 -RA SCT020 SCT055 21/17 Q1017 TEMPO 4000 TSRA
LIRF 221120Z 14008KT 100V180 9999 FEW020 SCT057 21/18 Q1017 TEMPO 4000 TSRA
LIRF 221050Z 11014KT 9999 FEW057 21/18 Q1017 TEMPO 4000 TSRA
LIRF 221020Z 12012KT 9999 FEW055 20/17 Q1017 TEMPO 4000 TSRA
LIRF 220950Z 12012KT 100V170 9999 -RA FEW055 19/17 Q1017 TEMPO 4000 TSRA
LIRF 220920Z 14012KT 9999 -RA FEW030 SCT055 19/17 Q1017 TEMPO 4000 TSRA
LIRF 220850Z 15009KT 9999 -RA FEW030 SCT050 20/17 Q1018 TEMPO 4000 TSRA
LIRF 220820Z 14005KT 110V190 9999 FEW050 20/18 Q1017 TEMPO 4000 TSRA
LIRF 220750Z 12007KT 9999 FEW050 19/17 Q1018 TEMPO 4000 TSRA
LIRF 220720Z 07008KT 9999 FEW040 18/17 Q1017 BECMG 4000 TSRA
LIRF 220650Z 08003KT 020V160 9999 -RA VCTS FEW020 SCT040 17/17 Q1018 BECMG 4000 TSRA
LIRF 220620Z 10008KT 6000 RA FEW020 SCT035 17/17 Q1019 RETS BECMG 4000 TSRA
LIRF 220550Z 07005KT 030V100 6000 TSRA SCT020CB BKN050 17/16 Q1019 NOSIG
LIRF 220520Z 11009KT 7000 TSRA FEW020CB SCT050 18/17 Q1018 NOSIG
LIRF 220450Z 09009KT 060V130 6000 RA VCTS SCT050 18/16 Q1019 TEMPO 4000 TSRA
LIRF 220420Z 12009KT 6000 RA SCT050 18/17 Q1018 TEMPO 4000 TSRA
LIRF 220350Z 04007KT 010V070 7000 RA VCTS SCT050 19/16 Q1019 TEMPO 4000 TSRA
LIRF 220320Z 35017KT 9999 -RA VCTS SCT040 23/13 Q1019 TEMPO 4000 TSRA
LIRF 220250Z 12007KT 9999 SCT040 22/13 Q1018 TEMPO 4000 TSRA
LIRF 220220Z 13008KT 9999 SCT040 22/14 Q1018 NOSIG
LIRF 220150Z 13008KT 9999 SCT040 22/13 Q1018 NOSIG
LIRF 220120Z 13007KT 9999 SCT045 22/13 Q1018 NOSIG
LIRF 220050Z 09007KT 9999 FEW055 21/14 Q1019 NOSIG
LIRF 220020Z 10011KT 9999 SCT045 21/14 Q1018 TEMPO TSRA
LIRF 212350Z 10007KT 9999 FEW035 SCT055 21/15 Q1019 TEMPO TSRA
LIRF 212320Z 10006KT 9999 FEW055CB 21/15 Q1019 TEMPO TSRA
LIRF 212250Z 10005KT 9999 SCT055 21/15 Q1020 NOSIG
LIRF 212220Z 10005KT 080V140 CAVOK 20/15 Q1020 NOSIG
LIRF 212150Z 08004KT CAVOK 20/16 Q1020 NOSIG
LIRF 212120Z 11003KT 060V160 CAVOK 20/16 Q1020 NOSIG
LIRF 212050Z 14005KT 110V190 CAVOK 21/16 Q1020 NOSIG
LIRF 212020Z 10006KT CAVOK 22/16 Q1020 NOSIG
LIRF 211950Z 11003KT 080V140 CAVOK 21/16 Q1020 NOSIG
LIRF 211920Z 09005KT 060V120 CAVOK 22/16 Q1020 NOSIG
LIRF 211850Z 10004KT CAVOK 22/16 Q1020 NOSIG
LIRF 211820Z 17003KT 140V220 CAVOK 22/16 Q1020 NOSIG
LIRF 211750Z 17004KT 140V210 CAVOK 23/17 Q1020 NOSIG
LIRF 211720Z 21008KT CAVOK 23/17 Q1020 NOSIG
LIRF 211650Z 20008KT CAVOK 23/17 Q1020 NOSIG
LIRF 211620Z 20007KT CAVOK 24/17 Q1020 NOSIG
LIRF 211550Z 21007KT 180V250 CAVOK 24/17 Q1020 NOSIG
LIRF 211520Z 20004KT 160V230 CAVOK 25/16 Q1020 NOSIG
LIRF 211450Z 24005KT 200V290 CAVOK 25/17 Q1020 NOSIG
LIRF 211420Z 25007KT 230V290 9999 FEW025 24/16 Q1021 NOSIG
LIRF 211350Z 24007KT 220V280 9999 SCT035 25/17 Q1021 NOSIG
LIRF 211320Z 25007KT 210V300 9999 SCT035 25/17 Q1021 NOSIG
LIRF 211250Z 23010KT 210V280 9999 SCT035 25/17 Q1022 NOSIG
LIRF 211220Z 24010KT 9999 SCT035 25/17 Q1022 NOSIG
LIRF 211150Z 23008KT 180V260 9999 SCT030 25/17 Q1022 NOSIG
LIRF 211120Z 20007KT 160V230 9999 SCT035 26/17 Q1022 NOSIG
LIRF 211050Z 20008KT 170V230 9999 SCT030 24/17 Q1022 NOSIG
LIRF 211020Z 23008KT 190V260 9999 SCT035 25/17 Q1022 NOSIG
LIRF 210950Z VRB03KT CAVOK 25/15 Q1022 NOSIG
LIRF 210920Z 11005KT 060V180 CAVOK 24/14 Q1022 NOSIG
LIRF 210850Z 10005KT 040V150 CAVOK 22/13 Q1022 NOSIG
LIRF 210820Z 05006KT 020V080 CAVOK 21/11 Q1022 NOSIG
LIRF 210750Z 08009KT 050V110 CAVOK 20/11 Q1022 NOSIG
LIRF 210720Z 07007KT 040V100 CAVOK 19/10 Q1022 NOSIG
LIRF 210650Z 05006KT CAVOK 17/09 Q1022 NOSIG
LIRF 210620Z 05006KT CAVOK 16/09 Q1022 NOSIG
LIRF 210550Z 05005KT CAVOK 15/09 Q1021 NOSIG
LIRF 210520Z 05005KT CAVOK 14/09 Q1021 NOSIG
LIRF 210450Z 05004KT CAVOK 14/09 Q1021 NOSIG
LIRF 210420Z 05003KT CAVOK 14/09 Q1021 NOSIG
LIRF 210350Z 06005KT CAVOK 15/09 Q1021 NOSIG
LIRF 210320Z 05006KT CAVOK 15/09 Q1021 NOSIG
LIRF 210250Z 04006KT CAVOK 15/09 Q1021 NOSIG
LIRF 210220Z 05005KT CAVOK 15/09 Q1021 NOSIG
LIRF 210150Z 05004KT CAVOK 15/09 Q1021 NOSIG
LIRF 210120Z 05005KT CAVOK 15/09 Q1021 NOSIG
LIRF 210050Z 04003KT CAVOK 16/09 Q1021 NOSIG
LIRF 210020Z 05005KT CAVOK 16/09 Q1021 NOSIG
LIRF 202350Z 05004KT CAVOK 17/09 Q1021 NOSIG
LIRF 202320Z 04005KT CAVOK 17/10 Q1021 NOSIG
LIRF 202250Z 04005KT CAVOK 17/10 Q1021 NOSIG
LIRF 202220Z 04006KT CAVOK 18/10 Q1021 NOSIG
LIRF 202150Z 03005KT CAVOK 18/10 Q1021 NOSIG